Wednesday, November 26, 2014
13:58 UTC
  |  Log In   |  Register Free
Airport Search:

Enid Woodring Regional Airport
(KWDG)

FAA data valid effective November 13, 2014 - January 08, 2015 (unless otherwise noted).

 
 
 
 
 
 
 
 
 
 
 
 
 
 

Current Aviation Weather for Enid Woodring Regional Airport (KWDG)

The most recent METAR observation for KWDG was updated at: 1323
METAR Summary (Translated METAR)
KWDG
261250Z 31010KT 10SM BKN150 05/00 A3007
KEND
261259Z 31007KT 10SM BKN110 03/M01 A3006 RMK AO2A SLP189
(6.6 nm SW from KWDG)
KBKN
261255Z AUTO 33007KT 10SM FEW075 OVC090 05/00 A3004 RMK AO2
(30.6 nm NE from KWDG)
TAF Summary (Translated TAF)
KEND
(6.6 nm SW from KWDG)
2611/2717 30009KT 9999 BKN100 BKN200 QNH3000INS BECMG 2615/2616 32020G25KT 9999 FEW020 BKN100 BKN200 QNH3011INS BECMG 2617/2618 32020G30KT 9999 FEW100 SCT200 QNH3013INS BECMG 2623/2624 34009KT 9999 FEW100 SCT200 QNH3018INS BECMG 2711/2712 16009KT 9999 FEW200 QNH3025INS TX11/2621Z TNM03/2708Z
  Airport Weather Conditions for KWDG

 Current Weather at WDG
41° F
Mostly Cloudy
Northwest winds at 11.5 mph
WDG NOAA Radar

Pressure: 30.07 in
Humidity: 70%
Wind: Northwest at 11.5 MPH (10 KT)
Dew Point: 32.0°F
Visibility: 10.00 mi


Airport Weather Forecast for KWDG

Translated METAR and TAF for KWDG
Translated METAR for KWDG (1353 UTC 26 November 2014)
found at http://aviationweather.gov/adds/metars/
 
METAR text: KWDG 261250Z 31010KT 10SM BKN150 05/00 A3007
Conditions at: KWDG (ENID/WOODRING , OK, US) observed 1250 UTC 26 November 2014
Temperature: 5.0°C (41°F)
Dewpoint: 0.0°C (32°F) [RH = 70%]
Pressure (altimeter): 30.07 inches Hg (1018.4 mb)
Winds: from the NW (310 degrees) at 12 MPH (10 knots; 5.2 m/s)
Visibility: 10 or more miles (16+ km)
Ceiling: 15000 feet AGL
Clouds: broken clouds at 15000 feet AGL
Weather: no significant weather observed at this time
Translated TAF for KWDG

There is no translated TAF available for this airport

Find All Airport Services Find A Hotel Find A Rental Car Find A Golf Course Find A Restaurant $100 Hamburger



FBO's on the Field
FBO Company Facility Photos Services Transportation Aviation Fuel Prices: Prices include tax
Catering Weather Repair Courtesy Rental Type 100LL JetA JetA+ MOGAS 8087
 
Enid Woodring Regional Airport

This FBO has not yet been rated
FS:Phillips 66
Last Updated: Oct-30
Login to update fuel prices
SS:
Contact Enid Woodring Regional AirportMore FBO Information
 
Add another FBO Facility Photos Catering Weather Repair Courtesy Rental Type 100LL JetA JetA+ MOGAS 8087
Services Transportation Aviation Fuel Prices: Prices include tax


model-print
model-print
model-print
model-print